createdAt,value
2023-01-29T00:00:10.810Z,101399.00
2023-01-29T00:02:41.530Z,101395.00
2023-01-29T00:05:26.474Z,101397.00
2023-01-29T00:07:54.992Z,101396.00
2023-01-29T00:10:22.963Z,101397.00
2023-01-29T00:12:52.262Z,101388.00
2023-01-29T00:15:21.049Z,101381.00
2023-01-29T00:17:49.023Z,101381.00
2023-01-29T00:20:17.698Z,101375.00
2023-01-29T00:22:45.639Z,101375.00
2023-01-29T00:25:13.408Z,101374.00
2023-01-29T00:27:41.398Z,101369.00
2023-01-29T00:30:13.059Z,101358.00
2023-01-29T00:32:41.784Z,101367.00
2023-01-29T00:35:10.350Z,101373.00
2023-01-29T00:37:38.471Z,101364.00
2023-01-29T00:40:06.905Z,101369.00
2023-01-29T00:42:53.261Z,101366.00
2023-01-29T00:45:21.153Z,101359.00
2023-01-29T00:47:49.391Z,101350.00
2023-01-29T00:50:17.694Z,101352.00
2023-01-29T00:52:46.192Z,101349.00
2023-01-29T00:55:14.209Z,101352.00
2023-01-29T00:57:42.139Z,101356.00
2023-01-29T01:00:12.972Z,101345.00
2023-01-29T01:02:59.345Z,101340.00
2023-01-29T01:05:28.178Z,101345.00
2023-01-29T01:07:58.058Z,101340.00
2023-01-29T01:10:32.485Z,101340.00
2023-01-29T01:13:05.562Z,101345.00
2023-01-29T01:15:40.114Z,101345.00
2023-01-29T01:18:07.956Z,101333.00
2023-01-29T01:20:36.929Z,101337.00
2023-01-29T01:23:05.150Z,101343.00
2023-01-29T01:25:33.296Z,101336.00
2023-01-29T01:28:01.911Z,101340.00
2023-01-29T01:30:33.345Z,101342.00
2023-01-29T01:33:01.841Z,101339.00
2023-01-29T01:35:29.943Z,101343.00
2023-01-29T01:37:57.744Z,101341.00
2023-01-29T01:40:26.993Z,101326.00
2023-01-29T01:42:57.780Z,101312.00
2023-01-29T01:45:34.806Z,101313.00
2023-01-29T01:48:19.630Z,101309.00
2023-01-29T01:50:56.971Z,101311.00
2023-01-29T01:53:37.712Z,101306.00
2023-01-29T01:56:25.270Z,101318.00
2023-01-29T01:58:56.255Z,101310.00
2023-01-29T02:01:30.764Z,101313.00
2023-01-29T02:04:19.413Z,101306.00
2023-01-29T02:07:06.596Z,101301.00
2023-01-29T02:09:39.699Z,101300.00
2023-01-29T02:12:11.611Z,101295.00
2023-01-29T02:14:41.336Z,101295.00
2023-01-29T02:17:12.419Z,101300.00
2023-01-29T02:20:07.112Z,101300.00
2023-01-29T02:23:02.648Z,101298.00
2023-01-29T02:26:05.217Z,101298.00
2023-01-29T02:29:23.400Z,101309.00
2023-01-29T02:32:05.212Z,101317.00
2023-01-29T02:35:12.146Z,101311.00
2023-01-29T02:38:07.488Z,101309.00
2023-01-29T02:41:16.921Z,101306.00
2023-01-29T02:43:54.489Z,101308.00
2023-01-29T02:46:25.623Z,101306.00
2023-01-29T02:49:09.164Z,101306.00
2023-01-29T02:51:45.021Z,101302.00
2023-01-29T02:54:22.238Z,101306.00
2023-01-29T02:56:59.430Z,101308.00
2023-01-29T02:59:38.688Z,101310.00
2023-01-29T03:02:11.291Z,101311.00
2023-01-29T03:04:48.081Z,101319.00
2023-01-29T03:07:45.026Z,101315.00
2023-01-29T03:10:40.292Z,101324.00
2023-01-29T03:13:20.432Z,101316.00
2023-01-29T03:15:55.111Z,101325.00
2023-01-29T03:19:20.270Z,101324.00
2023-01-29T03:22:00.535Z,101323.00
2023-01-29T03:25:04.505Z,101317.00
2023-01-29T03:27:56.009Z,101317.00
2023-01-29T03:30:45.011Z,101318.00
2023-01-29T03:33:33.274Z,101302.00
2023-01-29T03:36:09.614Z,101309.00
2023-01-29T03:38:37.570Z,101304.00
2023-01-29T03:41:38.919Z,101307.00
2023-01-29T03:44:40.734Z,101313.00
2023-01-29T03:47:27.277Z,101306.00
2023-01-29T03:50:10.242Z,101311.00
2023-01-29T03:53:11.836Z,101307.00
2023-01-29T03:55:59.891Z,101303.00
2023-01-29T03:58:57.564Z,101304.00
2023-01-29T04:01:40.895Z,101292.00
2023-01-29T04:04:19.008Z,101279.00
2023-01-29T04:06:49.171Z,101276.00
2023-01-29T04:09:28.338Z,101281.00
2023-01-29T04:12:09.492Z,101271.00
2023-01-29T04:14:40.153Z,101268.00
2023-01-29T04:17:18.208Z,101261.00
2023-01-29T04:19:54.805Z,101262.00
2023-01-29T04:22:33.381Z,101254.00
2023-01-29T04:25:09.761Z,101251.00
2023-01-29T04:28:05.797Z,101248.00
2023-01-29T04:30:40.773Z,101241.00
2023-01-29T04:33:30.053Z,101246.00
2023-01-29T04:36:26.293Z,101242.00
2023-01-29T04:39:13.287Z,101238.00
2023-01-29T04:41:51.917Z,101230.00
2023-01-29T04:44:56.990Z,101208.00
2023-01-29T04:47:34.074Z,101213.00
2023-01-29T04:50:16.458Z,101212.00
2023-01-29T04:53:08.118Z,101213.00
2023-01-29T04:55:44.678Z,101201.00
2023-01-29T04:58:22.349Z,101193.00
2023-01-29T05:00:52.355Z,101183.00
2023-01-29T05:03:22.169Z,101188.00
2023-01-29T05:05:51.231Z,101183.00
2023-01-29T05:08:21.326Z,101185.00
2023-01-29T05:10:50.422Z,101179.00
2023-01-29T05:13:19.674Z,101167.00
2023-01-29T05:15:57.949Z,101168.00
2023-01-29T05:18:25.905Z,101164.00
2023-01-29T05:20:54.312Z,101169.00
2023-01-29T05:23:23.392Z,101165.00
2023-01-29T05:25:52.265Z,101172.00
2023-01-29T05:28:20.090Z,101174.00
2023-01-29T05:30:50.181Z,101170.00
2023-01-29T05:33:21.179Z,101167.00
2023-01-29T05:35:50.131Z,101174.00
2023-01-29T05:38:18.563Z,101177.00
2023-01-29T05:40:46.732Z,101167.00
2023-01-29T05:43:19.516Z,101168.00
2023-01-29T05:45:59.130Z,101174.00
2023-01-29T05:48:29.143Z,101182.00
2023-01-29T05:51:03.648Z,101183.00
2023-01-29T05:53:32.121Z,101182.00
2023-01-29T05:56:02.652Z,101186.00
2023-01-29T05:58:32.048Z,101184.00
2023-01-29T06:01:08.113Z,101187.00
2023-01-29T06:03:36.007Z,101193.00
2023-01-29T06:06:03.914Z,101194.00
2023-01-29T06:08:33.055Z,101201.00
2023-01-29T06:11:01.002Z,101197.00
2023-01-29T06:13:29.246Z,101203.00
2023-01-29T06:15:57.338Z,101210.00
2023-01-29T06:18:25.234Z,101220.00
2023-01-29T06:20:53.222Z,101233.00
2023-01-29T06:23:20.981Z,101246.00
2023-01-29T06:25:48.698Z,101257.00
2023-01-29T06:28:16.477Z,101263.00
2023-01-29T06:30:47.946Z,101260.00
2023-01-29T06:33:18.891Z,101249.00
2023-01-29T06:35:46.799Z,101246.00
2023-01-29T06:38:14.699Z,101236.00
2023-01-29T06:40:42.460Z,101242.00
2023-01-29T06:43:10.243Z,101235.00
2023-01-29T06:45:38.280Z,101222.00
2023-01-29T06:48:06.317Z,101214.00
2023-01-29T06:50:34.364Z,101210.00
2023-01-29T06:53:05.561Z,101214.00
2023-01-29T06:55:33.455Z,101217.00
2023-01-29T06:58:05.042Z,101211.00
2023-01-29T07:00:33.229Z,101211.00
2023-01-29T07:03:01.077Z,101204.00
2023-01-29T07:05:31.578Z,101211.00
2023-01-29T07:07:59.421Z,101223.00
2023-01-29T07:10:27.399Z,101228.00
2023-01-29T07:12:55.255Z,101220.00
2023-01-29T07:15:23.080Z,101218.00
2023-01-29T07:17:58.707Z,101234.00
2023-01-29T07:20:28.108Z,101230.00
2023-01-29T07:22:59.021Z,101206.00
2023-01-29T07:25:27.255Z,101207.00
2023-01-29T07:27:55.303Z,101225.00
2023-01-29T07:30:23.294Z,101243.00
2023-01-29T07:32:51.286Z,101233.00
2023-01-29T07:35:21.800Z,101247.00
2023-01-29T07:37:52.466Z,101249.00
2023-01-29T07:40:20.421Z,101250.00
2023-01-29T07:42:48.227Z,101250.00
2023-01-29T07:45:16.101Z,101242.00
2023-01-29T07:47:46.881Z,101226.00
2023-01-29T07:50:15.144Z,101231.00
2023-01-29T07:52:43.389Z,101228.00
2023-01-29T07:55:11.207Z,101235.00
2023-01-29T07:57:38.891Z,101243.00
2023-01-29T08:00:07.180Z,101228.00
2023-01-29T08:02:40.925Z,101216.00
2023-01-29T08:05:09.268Z,101212.00
2023-01-29T08:07:37.194Z,101207.00
2023-01-29T08:10:08.312Z,101210.00
2023-01-29T08:12:36.095Z,101210.00
2023-01-29T08:15:04.176Z,101205.00
2023-01-29T08:17:32.058Z,101207.00
2023-01-29T08:20:00.000Z,101189.00
2023-01-29T08:22:28.007Z,101177.00
2023-01-29T08:25:06.469Z,101175.00
2023-01-29T08:27:36.276Z,101182.00
2023-01-29T08:30:05.321Z,101179.00
2023-01-29T08:32:33.282Z,101181.00
2023-01-29T08:35:01.179Z,101177.00
2023-01-29T08:37:29.110Z,101171.00
2023-01-29T08:39:57.102Z,101173.00
2023-01-29T08:42:24.919Z,101172.00
2023-01-29T08:44:52.802Z,101170.00
2023-01-29T08:47:20.682Z,101184.00
2023-01-29T08:49:48.794Z,101183.00
2023-01-29T08:52:16.544Z,101181.00
2023-01-29T08:54:44.343Z,101175.00
2023-01-29T08:57:12.233Z,101164.00
2023-01-29T08:59:40.028Z,101175.00
2023-01-29T09:02:08.959Z,101170.00
2023-01-29T09:04:36.809Z,101179.00
2023-01-29T09:07:04.773Z,101177.00
2023-01-29T09:09:32.692Z,101177.00
2023-01-29T09:12:00.469Z,101170.00
2023-01-29T09:14:28.452Z,101163.00
2023-01-29T09:17:00.919Z,101161.00
2023-01-29T09:19:28.799Z,101155.00
2023-01-29T09:21:56.939Z,101150.00
2023-01-29T09:24:24.835Z,101144.00
2023-01-29T09:26:52.905Z,101136.00
2023-01-29T09:29:20.750Z,101142.00
2023-01-29T09:31:48.562Z,101127.00
2023-01-29T09:34:16.349Z,101130.00
2023-01-29T09:36:44.250Z,101120.00
2023-01-29T09:39:12.121Z,101122.00
2023-01-29T09:41:42.923Z,101125.00
2023-01-29T09:44:38.072Z,101115.00
2023-01-29T09:47:08.730Z,101119.00
2023-01-29T09:49:42.848Z,101110.00
2023-01-29T09:52:26.812Z,101110.00
2023-01-29T09:55:15.612Z,101107.00
2023-01-29T09:57:55.238Z,101112.00
2023-01-29T10:00:26.239Z,101110.00
2023-01-29T10:03:40.482Z,101106.00
2023-01-29T10:06:16.605Z,101111.00
2023-01-29T10:08:47.264Z,101110.00
2023-01-29T10:11:31.304Z,101103.00
2023-01-29T10:14:20.405Z,101101.00
2023-01-29T10:17:02.932Z,101106.00
2023-01-29T10:20:17.631Z,101106.00
2023-01-29T10:22:54.921Z,101102.00
2023-01-29T10:25:23.575Z,101099.00
2023-01-29T10:27:57.544Z,101090.00
2023-01-29T10:30:42.565Z,101086.00
2023-01-29T10:33:19.128Z,101082.00
2023-01-29T10:35:55.365Z,101084.00
2023-01-29T10:38:40.176Z,101072.00
2023-01-29T10:41:10.912Z,101072.00
2023-01-29T10:43:54.868Z,101063.00
2023-01-29T10:46:50.794Z,101059.00
2023-01-29T10:49:42.908Z,101056.00
2023-01-29T10:52:27.520Z,101064.00
2023-01-29T10:54:59.372Z,101059.00
2023-01-29T10:57:52.484Z,101056.00
2023-01-29T11:00:49.937Z,101061.00
2023-01-29T11:03:29.612Z,101061.00
2023-01-29T11:06:00.448Z,101052.00
2023-01-29T11:08:35.480Z,101052.00
2023-01-29T11:11:12.354Z,101047.00
2023-01-29T11:13:57.885Z,101036.00
2023-01-29T11:16:26.627Z,101026.00
2023-01-29T11:19:00.283Z,101028.00
2023-01-29T11:21:29.296Z,101017.00
2023-01-29T11:24:17.517Z,101016.00
2023-01-29T11:26:48.731Z,101009.00
2023-01-29T11:29:48.422Z,101009.00
2023-01-29T11:32:26.634Z,101009.00
2023-01-29T11:35:17.748Z,100999.00
2023-01-29T11:37:49.034Z,100994.00
2023-01-29T11:40:20.062Z,100997.00
2023-01-29T11:42:48.361Z,100989.00
2023-01-29T11:45:30.068Z,100985.00
2023-01-29T11:47:58.695Z,100992.00
2023-01-29T11:50:32.466Z,100991.00
2023-01-29T11:53:01.609Z,100984.00
2023-01-29T11:55:49.796Z,100981.00
2023-01-29T11:58:28.095Z,100985.00
2023-01-29T12:00:56.934Z,100981.00
2023-01-29T12:03:48.679Z,100974.00
2023-01-29T12:06:25.343Z,100975.00
2023-01-29T12:09:00.910Z,100973.00
2023-01-29T12:11:33.910Z,100957.00
2023-01-29T12:14:04.145Z,100957.00
2023-01-29T12:16:47.014Z,100957.00
2023-01-29T12:19:27.123Z,100954.00
2023-01-29T12:22:09.226Z,100961.00
2023-01-29T12:24:52.227Z,100959.00
2023-01-29T12:27:49.215Z,100948.00
2023-01-29T12:30:26.384Z,100947.00
2023-01-29T12:33:26.687Z,100934.00
2023-01-29T12:36:15.100Z,100930.00
2023-01-29T12:38:45.473Z,100920.00
2023-01-29T12:41:22.417Z,100913.00
2023-01-29T12:44:19.448Z,100916.00
2023-01-29T12:46:56.942Z,100915.00
2023-01-29T12:49:28.407Z,100916.00
2023-01-29T12:52:04.915Z,100918.00
2023-01-29T12:54:56.590Z,100918.00
2023-01-29T12:57:32.867Z,100914.00
2023-01-29T13:00:16.301Z,100914.00
2023-01-29T13:02:57.113Z,100909.00
2023-01-29T13:05:29.660Z,100906.00
2023-01-29T13:08:29.727Z,100917.00
2023-01-29T13:11:01.141Z,100908.00
2023-01-29T13:13:36.481Z,100908.00
2023-01-29T13:16:09.500Z,100906.00
2023-01-29T13:18:55.159Z,100897.00
2023-01-29T13:21:27.606Z,100894.00
2023-01-29T13:24:02.630Z,100888.00
2023-01-29T13:26:31.172Z,100887.00
2023-01-29T13:28:59.825Z,100882.00
2023-01-29T13:31:39.236Z,100884.00
2023-01-29T13:34:21.978Z,100880.00
2023-01-29T13:36:56.485Z,100871.00
2023-01-29T13:39:34.063Z,100876.00
2023-01-29T13:42:04.605Z,100867.00
2023-01-29T13:44:38.538Z,100868.00
2023-01-29T13:47:11.653Z,100860.00
2023-01-29T13:49:53.142Z,100856.00
2023-01-29T13:52:43.519Z,100850.00
2023-01-29T13:55:14.543Z,100856.00
2023-01-29T13:57:46.180Z,100850.00
2023-01-29T14:00:25.206Z,100853.00
2023-01-29T14:02:56.500Z,100844.00
2023-01-29T14:05:32.769Z,100850.00
2023-01-29T14:08:02.468Z,100838.00
2023-01-29T14:10:31.677Z,100833.00
2023-01-29T14:13:05.388Z,100822.00
2023-01-29T14:15:35.299Z,100820.00
2023-01-29T14:18:06.330Z,100825.00
2023-01-29T14:20:45.546Z,100814.00
2023-01-29T14:23:36.868Z,100819.00
2023-01-29T14:26:23.875Z,100818.00
2023-01-29T14:29:25.577Z,100818.00
2023-01-29T14:32:07.517Z,100825.00
2023-01-29T14:34:43.372Z,100815.00
2023-01-29T14:37:17.397Z,100813.00
2023-01-29T14:39:52.383Z,100805.00
2023-01-29T14:42:40.228Z,100802.00
2023-01-29T14:45:28.397Z,100806.00
2023-01-29T14:48:19.350Z,100806.00
2023-01-29T14:50:48.993Z,100805.00
2023-01-29T14:53:40.493Z,100804.00
2023-01-29T14:56:40.160Z,100795.00
2023-01-29T14:59:47.894Z,100797.00
2023-01-29T15:02:20.790Z,100801.00
2023-01-29T15:04:57.528Z,100792.00
2023-01-29T15:07:33.449Z,100791.00
2023-01-29T15:10:23.026Z,100778.00
2023-01-29T15:13:17.073Z,100775.00
2023-01-29T15:15:48.518Z,100784.00
2023-01-29T15:18:40.261Z,100776.00
2023-01-29T15:21:16.186Z,100765.00
2023-01-29T15:23:44.995Z,100769.00
2023-01-29T15:26:18.771Z,100769.00
2023-01-29T15:29:03.864Z,100753.00
2023-01-29T15:31:32.773Z,100751.00
2023-01-29T15:34:06.620Z,100745.00
2023-01-29T15:36:34.678Z,100746.00
2023-01-29T15:39:23.009Z,100751.00
2023-01-29T15:42:16.708Z,100740.00
2023-01-29T15:44:47.669Z,100741.00
2023-01-29T15:47:16.468Z,100735.00
2023-01-29T15:49:47.980Z,100728.00
2023-01-29T15:52:26.488Z,100729.00
2023-01-29T15:54:55.321Z,100729.00
2023-01-29T15:57:31.846Z,100719.00
2023-01-29T16:00:00.198Z,100715.00
2023-01-29T16:02:38.536Z,100706.00
2023-01-29T16:05:15.793Z,100709.00
2023-01-29T16:07:44.885Z,100710.00
2023-01-29T16:10:24.997Z,100718.00
2023-01-29T16:12:53.405Z,100706.00
2023-01-29T16:15:40.985Z,100709.00
2023-01-29T16:18:29.026Z,100708.00
2023-01-29T16:20:58.130Z,100710.00
2023-01-29T16:23:31.525Z,100710.00
2023-01-29T16:26:05.663Z,100702.00
2023-01-29T16:28:33.739Z,100698.00
2023-01-29T16:31:04.298Z,100696.00
2023-01-29T16:33:35.907Z,100692.00
2023-01-29T16:36:06.281Z,100684.00
2023-01-29T16:38:35.944Z,100685.00
2023-01-29T16:41:14.495Z,100682.00
2023-01-29T16:43:46.302Z,100673.00
2023-01-29T16:46:25.401Z,100674.00
2023-01-29T16:48:53.891Z,100673.00
2023-01-29T16:51:36.716Z,100667.00
2023-01-29T16:54:17.803Z,100672.00
2023-01-29T16:56:47.826Z,100677.00
2023-01-29T16:59:34.848Z,100659.00
2023-01-29T17:02:03.341Z,100658.00
2023-01-29T17:04:31.214Z,100654.00
2023-01-29T17:07:01.122Z,100649.00
2023-01-29T17:09:34.222Z,100643.00
2023-01-29T17:12:05.313Z,100640.00
2023-01-29T17:14:34.505Z,100639.00
2023-01-29T17:17:05.414Z,100631.00
2023-01-29T17:19:33.524Z,100626.00
2023-01-29T17:22:06.189Z,100625.00
2023-01-29T17:24:33.896Z,100629.00
2023-01-29T17:27:02.629Z,100622.00
2023-01-29T17:29:31.768Z,100626.00
2023-01-29T17:32:02.339Z,100610.00
2023-01-29T17:34:30.028Z,100606.00
2023-01-29T17:36:57.753Z,100597.00
2023-01-29T17:39:25.883Z,100595.00
2023-01-29T17:42:01.544Z,100597.00
2023-01-29T17:44:29.366Z,100596.00
2023-01-29T17:46:57.938Z,100591.00
2023-01-29T17:49:30.100Z,100586.00
2023-01-29T17:51:58.108Z,100580.00
2023-01-29T17:54:26.138Z,100581.00
2023-01-29T17:56:54.466Z,100582.00
2023-01-29T17:59:24.581Z,100573.00
2023-01-29T18:01:53.336Z,100569.00
2023-01-29T18:04:21.243Z,100572.00
2023-01-29T18:06:50.759Z,100566.00
2023-01-29T18:09:23.300Z,100587.00
2023-01-29T18:11:51.746Z,100571.00
2023-01-29T18:14:19.580Z,100569.00
2023-01-29T18:16:47.520Z,100567.00
2023-01-29T18:19:17.144Z,100574.00
2023-01-29T18:21:45.133Z,100570.00
2023-01-29T18:24:13.065Z,100569.00
2023-01-29T18:26:41.065Z,100571.00
2023-01-29T18:29:09.297Z,100561.00
2023-01-29T18:31:37.155Z,100556.00
2023-01-29T18:34:05.117Z,100549.00
2023-01-29T18:36:33.227Z,100545.00
2023-01-29T18:39:01.233Z,100545.00
2023-01-29T18:41:29.077Z,100550.00
2023-01-29T18:43:56.791Z,100549.00
2023-01-29T18:46:24.521Z,100540.00
2023-01-29T18:48:57.507Z,100539.00
2023-01-29T18:51:25.270Z,100542.00
2023-01-29T18:53:53.306Z,100535.00
2023-01-29T18:56:21.519Z,100526.00
2023-01-29T18:58:52.634Z,100524.00
2023-01-29T19:01:23.999Z,100517.00
2023-01-29T19:03:52.692Z,100503.00
2023-01-29T19:06:23.416Z,100509.00
2023-01-29T19:08:51.437Z,100502.00
2023-01-29T19:11:19.255Z,100500.00
2023-01-29T19:13:48.267Z,100491.00
2023-01-29T19:16:16.137Z,100498.00
2023-01-29T19:18:43.980Z,100498.00
2023-01-29T19:21:14.215Z,100496.00
2023-01-29T19:23:43.117Z,100490.00
2023-01-29T19:26:11.673Z,100494.00
2023-01-29T19:28:39.579Z,100482.00
2023-01-29T19:31:07.482Z,100480.00
2023-01-29T19:33:35.618Z,100480.00
2023-01-29T19:36:03.549Z,100476.00
2023-01-29T19:38:33.675Z,100478.00
2023-01-29T19:41:01.824Z,100445.00
2023-01-29T19:43:33.375Z,100449.00
2023-01-29T19:46:02.243Z,100446.00
2023-01-29T19:48:30.542Z,100437.00
2023-01-29T19:51:00.476Z,100435.00
2023-01-29T19:53:29.763Z,100437.00
2023-01-29T19:56:02.420Z,100437.00
2023-01-29T19:58:33.082Z,100431.00
2023-01-29T20:01:20.827Z,100428.00
2023-01-29T20:03:49.669Z,100407.00
2023-01-29T20:06:22.965Z,100414.00
2023-01-29T20:08:54.130Z,100420.00
2023-01-29T20:11:23.277Z,100418.00
2023-01-29T20:13:52.194Z,100393.00
2023-01-29T20:16:20.772Z,100391.00
2023-01-29T20:18:48.786Z,100385.00
2023-01-29T20:21:20.633Z,100386.00
2023-01-29T20:23:52.029Z,100376.00
2023-01-29T20:26:20.337Z,100374.00
2023-01-29T20:28:51.406Z,100353.00
2023-01-29T20:31:21.971Z,100346.00
2023-01-29T20:33:49.786Z,100334.00
2023-01-29T20:36:20.958Z,100341.00
2023-01-29T20:38:48.867Z,100333.00
2023-01-29T20:41:18.762Z,100335.00
2023-01-29T20:43:49.173Z,100322.00
2023-01-29T20:46:17.443Z,100311.00
2023-01-29T20:48:45.703Z,100298.00
2023-01-29T20:51:16.782Z,100326.00
2023-01-29T20:53:46.480Z,100295.00
2023-01-29T20:56:32.170Z,100299.00
2023-01-29T20:59:06.554Z,100297.00
2023-01-29T21:01:34.374Z,100283.00
2023-01-29T21:04:02.194Z,100283.00
2023-01-29T21:06:30.076Z,100270.00
2023-01-29T21:08:57.983Z,100277.00
2023-01-29T21:11:26.511Z,100279.00
2023-01-29T21:13:57.769Z,100255.00
2023-01-29T21:16:29.307Z,100263.00
2023-01-29T21:19:00.529Z,100255.00
2023-01-29T21:21:31.403Z,100245.00
2023-01-29T21:24:01.563Z,100249.00
2023-01-29T21:26:29.359Z,100251.00
2023-01-29T21:28:57.532Z,100244.00
2023-01-29T21:31:25.318Z,100234.00
2023-01-29T21:33:53.302Z,100228.00
2023-01-29T21:36:21.095Z,100231.00
2023-01-29T21:38:48.872Z,100222.00
2023-01-29T21:41:16.633Z,100224.00
2023-01-29T21:43:45.697Z,100235.00
2023-01-29T21:46:16.295Z,100239.00
2023-01-29T21:48:44.337Z,100236.00
2023-01-29T21:51:12.256Z,100247.00
2023-01-29T21:53:40.133Z,100249.00
2023-01-29T21:56:07.943Z,100233.00
2023-01-29T21:58:35.823Z,100227.00
2023-01-29T22:01:36.077Z,100228.00
2023-01-29T22:03:51.222Z,100228.00
2023-01-29T22:06:19.094Z,100220.00
2023-01-29T22:08:48.493Z,100214.00
2023-01-29T22:11:16.500Z,100223.00
2023-01-29T22:13:44.238Z,100215.00
2023-01-29T22:16:12.072Z,100221.00
2023-01-29T22:18:39.753Z,100215.00
2023-01-29T22:21:07.474Z,100205.00
2023-01-29T22:23:35.513Z,100209.00
2023-01-29T22:26:07.463Z,100205.00
2023-01-29T22:28:35.522Z,100203.00
2023-01-29T22:31:04.095Z,100197.00
2023-01-29T22:33:35.440Z,100184.00
2023-01-29T22:36:03.715Z,100185.00
2023-01-29T22:38:32.068Z,100185.00
2023-01-29T22:41:01.011Z,100187.00
2023-01-29T22:43:29.526Z,100186.00
2023-01-29T22:45:57.574Z,100174.00
2023-01-29T22:48:25.916Z,100165.00
2023-01-29T22:51:10.109Z,100168.00
2023-01-29T22:53:39.561Z,100150.00
2023-01-29T22:56:08.098Z,100153.00
2023-01-29T22:58:36.288Z,100154.00
2023-01-29T23:01:04.736Z,100149.00
2023-01-29T23:03:32.674Z,100147.00
2023-01-29T23:06:01.037Z,100146.00
2023-01-29T23:08:29.039Z,100146.00
2023-01-29T23:11:14.381Z,100145.00
2023-01-29T23:13:47.780Z,100128.00
2023-01-29T23:16:17.145Z,100124.00
2023-01-29T23:18:45.870Z,100128.00
2023-01-29T23:21:13.944Z,100125.00
2023-01-29T23:23:44.066Z,100126.00
2023-01-29T23:26:31.876Z,100107.00
2023-01-29T23:29:00.436Z,100117.00
2023-01-29T23:31:28.468Z,100109.00
2023-01-29T23:33:56.642Z,100107.00
2023-01-29T23:36:27.208Z,100094.00
2023-01-29T23:38:55.269Z,100077.00
2023-01-29T23:41:23.186Z,100078.00
2023-01-29T23:43:52.894Z,100063.00
2023-01-29T23:46:21.413Z,100054.00
2023-01-29T23:48:49.264Z,100030.00
2023-01-29T23:51:17.166Z,100026.00
2023-01-29T23:53:44.836Z,100016.00
2023-01-29T23:56:15.807Z,99995.00
2023-01-29T23:58:44.190Z,99974.00
